Time,TemperatureF,DewpointF,PressureIn,WindDirection,WindDirectionDegrees,WindSpeedMPH,WindSpeedGustMPH,Humidity,HourlyPrecipIn,Conditions,Clouds,dailyrainin,SoftwareType,DateUTC
2013-04-30 00:01:00,55.4,52.2,30.08,West,270,0.0,0.4,89,0.00,,,0.00,WUHU216HW,2013-04-30 04:01:00,
2013-04-30 00:02:00,55.4,52.2,30.08,South,180,0.0,0.4,89,0.00,,,0.00,WUHU216HW,2013-04-30 04:02:00,
2013-04-30 00:07:00,55.4,52.2,30.08,South,180,0.0,0.0,89,0.00,,,0.00,WUHU216HW,2013-04-30 04:07:00,
2013-04-30 00:12:00,55.4,52.2,30.08,South,180,0.0,0.0,89,0.00,,,0.00,WUHU216HW,2013-04-30 04:12:00,
2013-04-30 00:17:00,55.4,52.6,30.08,ESE,113,3.1,3.1,90,0.00,,,0.00,WUHU216HW,2013-04-30 04:17:00,
2013-04-30 00:22:00,55.4,52.2,30.08,SW,225,0.0,3.1,89,0.00,,,0.00,WUHU216HW,2013-04-30 04:22:00,
2013-04-30 00:27:00,55.4,52.2,30.08,WSW,248,0.0,3.1,89,0.00,,,0.00,WUHU216HW,2013-04-30 04:27:00,
2013-04-30 00:32:00,55.4,52.2,30.08,SW,225,0.0,0.0,89,0.00,,,0.00,WUHU216HW,2013-04-30 04:32:00,
2013-04-30 00:37:00,55.4,52.2,30.07,WSW,248,0.0,0.0,89,0.00,,,0.00,WUHU216HW,2013-04-30 04:37:00,
2013-04-30 00:42:00,55.4,52.2,30.08,SSW,203,0.9,0.9,89,0.00,,,0.00,WUHU216HW,2013-04-30 04:42:00,
2013-04-30 00:47:00,55.4,52.2,30.07,SSE,158,0.7,0.9,89,0.00,,,0.00,WUHU216HW,2013-04-30 04:47:00,
2013-04-30 00:52:00,55.3,52.4,30.07,SW,225,0.0,0.9,90,0.00,,,0.00,WUHU216HW,2013-04-30 04:52:00,
2013-04-30 00:58:00,55.3,52.4,30.07,West,270,0.0,0.7,90,0.00,,,0.00,WUHU216HW,2013-04-30 04:58:00,
2013-04-30 01:03:00,55.3,52.4,30.07,SW,225,0.0,0.4,90,0.00,,,0.00,WUHU216HW,2013-04-30 05:03:00,
2013-04-30 01:08:00,55.3,52.4,30.07,West,270,0.0,0.4,90,0.00,,,0.00,WUHU216HW,2013-04-30 05:08:00,
2013-04-30 01:13:00,55.3,52.4,30.07,West,270,0.0,0.0,90,0.00,,,0.00,WUHU216HW,2013-04-30 05:13:00,
2013-04-30 01:18:00,55.3,52.4,30.07,WSW,248,0.2,0.2,90,0.00,,,0.00,WUHU216HW,2013-04-30 05:18:00,
2013-04-30 01:23:00,55.3,52.4,30.07,SSW,203,0.4,0.4,90,0.00,,,0.00,WUHU216HW,2013-04-30 05:23:00,
2013-04-30 01:28:00,55.3,52.4,30.07,WSW,248,1.1,1.1,90,0.00,,,0.00,WUHU216HW,2013-04-30 05:28:00,
2013-04-30 01:33:00,55.3,52.4,30.07,South,180,0.0,1.1,90,0.00,,,0.00,WUHU216HW,2013-04-30 05:33:00,
2013-04-30 01:38:00,55.3,52.4,30.07,SW,225,0.4,0.4,90,0.00,,,0.00,WUHU216HW,2013-04-30 05:38:00,
2013-04-30 01:43:00,55.3,52.4,30.07,ESE,113,0.2,0.4,90,0.00,,,0.00,WUHU216HW,2013-04-30 05:43:00,
2013-04-30 01:48:00,55.3,52.4,30.07,ESE,113,0.0,0.4,90,0.00,,,0.00,WUHU216HW,2013-04-30 05:48:00,
2013-04-30 01:53:00,55.3,52.4,30.07,SSW,203,0.0,0.2,90,0.00,,,0.00,WUHU216HW,2013-04-30 05:53:00,
2013-04-30 01:59:00,55.3,52.4,30.07,SW,225,0.0,0.0,90,0.00,,,0.00,WUHU216HW,2013-04-30 05:59:00,
2013-04-30 02:04:00,55.3,52.4,30.07,SE,135,0.0,0.0,90,0.00,,,0.00,WUHU216HW,2013-04-30 06:04:00,
2013-04-30 02:09:00,55.3,52.4,30.07,SE,135,0.0,0.0,90,0.00,,,0.00,WUHU216HW,2013-04-30 06:09:00,
2013-04-30 02:14:00,55.3,52.4,30.07,SSW,203,0.0,0.0,90,0.00,,,0.00,WUHU216HW,2013-04-30 06:14:00,
2013-04-30 02:19:00,55.3,52.4,30.07,SSW,203,0.0,0.0,90,0.00,,,0.00,WUHU216HW,2013-04-30 06:19:00,
2013-04-30 02:24:00,55.4,52.6,30.07,SSW,203,0.0,0.0,90,0.00,,,0.00,WUHU216HW,2013-04-30 06:24:00,
2013-04-30 02:29:00,55.4,52.6,30.07,SSW,203,0.0,0.0,90,0.00,,,0.00,WUHU216HW,2013-04-30 06:29:00,
2013-04-30 02:34:00,55.4,52.6,30.07,WSW,248,0.0,0.0,90,0.00,,,0.00,WUHU216HW,2013-04-30 06:34:00,
2013-04-30 02:39:00,55.4,52.6,30.07,SE,135,0.0,0.0,90,0.00,,,0.00,WUHU216HW,2013-04-30 06:39:00,
2013-04-30 02:44:00,55.4,52.6,30.07,SE,135,0.0,0.0,90,0.00,,,0.00,WUHU216HW,2013-04-30 06:44:00,
2013-04-30 02:49:00,55.4,52.6,30.06,WSW,248,1.1,1.1,90,0.00,,,0.00,WUHU216HW,2013-04-30 06:49:00,
2013-04-30 02:54:00,55.4,52.8,30.06,SSE,158,0.0,1.1,91,0.00,,,0.00,WUHU216HW,2013-04-30 06:54:00,
2013-04-30 02:59:00,55.4,52.8,30.06,SSE,158,0.0,0.7,91,0.00,,,0.00,WUHU216HW,2013-04-30 06:59:00,
2013-04-30 03:05:00,55.4,52.8,30.07,ESE,113,0.0,0.9,91,0.00,,,0.00,WUHU216HW,2013-04-30 07:05:00,
2013-04-30 03:10:00,55.4,52.8,30.07,SSE,158,0.0,0.9,91,0.00,,,0.00,WUHU216HW,2013-04-30 07:10:00,
2013-04-30 03:15:00,55.4,52.8,30.06,SW,225,0.0,0.0,91,0.00,,,0.00,WUHU216HW,2013-04-30 07:15:00,
2013-04-30 03:20:00,55.4,52.8,30.06,SSE,158,0.0,0.0,91,0.00,,,0.00,WUHU216HW,2013-04-30 07:20:00,
2013-04-30 03:25:00,55.4,52.8,30.07,SSW,203,0.0,0.4,91,0.00,,,0.00,WUHU216HW,2013-04-30 07:25:00,
2013-04-30 03:30:00,55.6,53.0,30.07,SW,225,0.0,0.4,91,0.00,,,0.00,WUHU216HW,2013-04-30 07:30:00,
2013-04-30 03:35:00,55.6,53.0,30.07,SW,225,0.0,0.0,91,0.00,,,0.00,WUHU216HW,2013-04-30 07:35:00,
2013-04-30 03:40:00,55.6,53.0,30.07,SW,225,0.0,0.0,91,0.00,,,0.00,WUHU216HW,2013-04-30 07:40:00,
2013-04-30 03:45:00,55.8,53.2,30.07,SSE,158,0.0,0.0,91,0.00,,,0.00,WUHU216HW,2013-04-30 07:45:00,
2013-04-30 03:50:00,55.8,53.2,30.07,WSW,248,1.6,1.6,91,0.00,,,0.00,WUHU216HW,2013-04-30 07:50:00,
2013-04-30 03:55:00,55.8,53.2,30.07,SSW,203,0.4,1.6,91,0.00,,,0.00,WUHU216HW,2013-04-30 07:55:00,
2013-04-30 04:01:00,55.8,53.2,30.07,SSW,203,0.0,0.4,91,0.00,,,0.00,WUHU216HW,2013-04-30 08:01:00,
2013-04-30 04:06:00,55.8,53.2,30.07,SSW,203,0.0,0.4,91,0.00,,,0.00,WUHU216HW,2013-04-30 08:06:00,
2013-04-30 04:11:00,55.8,53.2,30.07,SW,225,0.0,1.6,91,0.00,,,0.00,WUHU216HW,2013-04-30 08:11:00,
2013-04-30 04:16:00,55.8,53.2,30.07,SSW,203,0.4,1.6,91,0.00,,,0.00,WUHU216HW,2013-04-30 08:16:00,
2013-04-30 04:21:00,55.8,53.2,30.07,SSW,203,0.0,0.4,91,0.00,,,0.00,WUHU216HW,2013-04-30 08:21:00,
2013-04-30 04:26:00,55.8,53.2,30.07,SW,225,0.0,0.4,91,0.00,,,0.00,WUHU216HW,2013-04-30 08:26:00,
2013-04-30 04:31:00,55.8,53.2,30.07,SW,225,0.0,0.4,91,0.00,,,0.00,WUHU216HW,2013-04-30 08:31:00,
2013-04-30 04:36:00,55.8,53.2,30.07,SW,225,0.0,0.0,91,0.00,,,0.00,WUHU216HW,2013-04-30 08:36:00,
2013-04-30 04:41:00,55.8,53.2,30.07,WSW,248,0.4,0.4,91,0.00,,,0.00,WUHU216HW,2013-04-30 08:41:00,
2013-04-30 04:46:00,55.8,53.2,30.08,SSW,203,0.0,0.4,91,0.00,,,0.00,WUHU216HW,2013-04-30 08:46:00,
2013-04-30 04:51:00,55.8,53.2,30.08,WSW,248,0.0,0.4,91,0.00,,,0.00,WUHU216HW,2013-04-30 08:51:00,
2013-04-30 04:56:00,55.8,53.2,30.08,WSW,248,0.0,0.0,91,0.00,,,0.00,WUHU216HW,2013-04-30 08:56:00,
2013-04-30 05:01:00,55.8,53.2,30.08,WSW,248,0.4,0.4,91,0.00,,,0.00,WUHU216HW,2013-04-30 09:01:00,
2013-04-30 05:07:00,55.8,53.2,30.08,SW,225,0.0,0.4,91,0.00,,,0.00,WUHU216HW,2013-04-30 09:07:00,
2013-04-30 05:12:00,55.8,53.2,30.08,SSW,203,0.0,0.4,91,0.00,,,0.00,WUHU216HW,2013-04-30 09:12:00,
2013-04-30 05:17:00,55.8,53.2,30.08,SSE,158,2.5,2.5,91,0.00,,,0.00,WUHU216HW,2013-04-30 09:17:00,
2013-04-30 05:22:00,55.8,53.5,30.09,SW,225,0.4,2.5,92,0.00,,,0.00,WUHU216HW,2013-04-30 09:22:00,
2013-04-30 05:27:00,55.8,53.5,30.08,SW,225,0.9,2.5,92,0.00,,,0.00,WUHU216HW,2013-04-30 09:27:00,
2013-04-30 05:32:00,55.8,53.5,30.08,SSW,203,0.0,0.9,92,0.00,,,0.00,WUHU216HW,2013-04-30 09:32:00,
2013-04-30 05:37:00,55.8,53.5,30.09,SSW,203,0.0,0.9,92,0.00,,,0.00,WUHU216HW,2013-04-30 09:37:00,
2013-04-30 05:42:00,55.8,53.5,30.09,SSW,203,0.0,0.0,92,0.00,,,0.00,WUHU216HW,2013-04-30 09:42:00,
2013-04-30 06:30:00,55.8,53.5,30.11,SSW,203,0.0,0.0,92,0.00,,,0.00,WUHU216HW,2013-04-30 10:30:00,
2013-04-30 06:35:00,55.8,53.5,30.11,SW,225,0.4,0.4,92,0.00,,,0.00,WUHU216HW,2013-04-30 10:35:00,
2013-04-30 06:40:00,55.8,53.5,30.12,WSW,248,1.1,1.1,92,0.00,,,0.00,WUHU216HW,2013-04-30 10:40:00,
2013-04-30 06:45:00,55.8,53.5,30.12,SW,225,0.9,1.1,92,0.00,,,0.00,WUHU216HW,2013-04-30 10:45:00,
2013-04-30 06:50:00,55.8,53.5,30.12,SW,225,1.1,1.1,92,0.00,,,0.00,WUHU216HW,2013-04-30 10:50:00,
2013-04-30 06:55:00,55.8,53.5,30.12,WSW,248,0.0,1.1,92,0.00,,,0.00,WUHU216HW,2013-04-30 10:55:00,
2013-04-30 07:00:00,55.8,53.5,30.12,SSW,203,1.3,1.3,92,0.00,,,0.00,WUHU216HW,2013-04-30 11:00:00,
2013-04-30 07:05:00,56.0,53.6,30.12,SW,225,0.7,1.3,92,0.00,,,0.00,WUHU216HW,2013-04-30 11:05:00,
2013-04-30 07:10:00,56.0,53.6,30.12,WSW,248,0.2,0.7,92,0.00,,,0.00,WUHU216HW,2013-04-30 11:10:00,
2013-04-30 07:16:00,56.0,53.6,30.12,WSW,248,0.0,0.7,92,0.00,,,0.00,WUHU216HW,2013-04-30 11:16:00,
2013-04-30 07:21:00,56.2,53.8,30.13,South,180,0.4,0.4,92,0.00,,,0.00,WUHU216HW,2013-04-30 11:21:00,
2013-04-30 07:26:00,56.2,53.8,30.13,SW,225,0.2,0.4,92,0.00,,,0.00,WUHU216HW,2013-04-30 11:26:00,
2013-04-30 07:31:00,56.2,53.8,30.13,SW,225,0.0,0.4,92,0.00,,,0.00,WUHU216HW,2013-04-30 11:31:00,
2013-04-30 07:36:00,56.3,54.0,30.13,WSW,248,0.7,0.7,92,0.00,,,0.00,WUHU216HW,2013-04-30 11:36:00,
2013-04-30 07:41:00,56.3,54.0,30.13,SSW,203,0.0,0.7,92,0.00,,,0.00,WUHU216HW,2013-04-30 11:41:00,
2013-04-30 07:46:00,56.5,54.2,30.13,South,180,0.0,0.7,92,0.00,,,0.00,WUHU216HW,2013-04-30 11:46:00,
2013-04-30 07:52:00,56.5,54.2,30.13,South,180,0.0,0.0,92,0.00,,,0.00,WUHU216HW,2013-04-30 11:52:00,
2013-04-30 08:00:00,56.7,54.4,30.14,SW,225,0.0,0.0,92,0.00,,,0.00,WUHU216HW,2013-04-30 12:00:00,
2013-04-30 08:05:00,56.7,54.4,30.14,WSW,248,0.9,0.9,92,0.00,,,0.00,WUHU216HW,2013-04-30 12:05:00,
2013-04-30 08:10:00,56.7,54.4,30.14,SSW,203,0.4,1.6,92,0.00,,,0.00,WUHU216HW,2013-04-30 12:10:00,
2013-04-30 08:15:00,56.7,54.4,30.14,SSE,158,0.0,1.6,92,0.00,,,0.00,WUHU216HW,2013-04-30 12:15:00,
2013-04-30 08:20:00,56.9,54.5,30.15,SW,225,0.0,0.4,92,0.00,,,0.00,WUHU216HW,2013-04-30 12:20:00,
2013-04-30 08:25:00,56.9,54.5,30.15,SSW,203,0.9,0.9,92,0.00,,,0.00,WUHU216HW,2013-04-30 12:25:00,
2013-04-30 08:30:00,56.9,54.5,30.15,SW,225,1.6,1.6,92,0.00,,,0.00,WUHU216HW,2013-04-30 12:30:00,
2013-04-30 08:35:00,56.9,54.5,30.15,SW,225,1.8,1.8,92,0.00,,,0.00,WUHU216HW,2013-04-30 12:35:00,
2013-04-30 08:41:00,57.1,54.7,30.15,WSW,248,0.0,1.8,92,0.00,,,0.00,WUHU216HW,2013-04-30 12:41:00,
2013-04-30 08:46:00,57.2,54.9,30.15,SSE,158,0.7,1.8,92,0.00,,,0.00,WUHU216HW,2013-04-30 12:46:00,
2013-04-30 08:51:00,57.2,54.9,30.16,South,180,0.7,0.7,92,0.00,,,0.00,WUHU216HW,2013-04-30 12:51:00,
2013-04-30 08:56:00,57.2,54.9,30.16,SSW,203,0.4,1.1,92,0.00,,,0.00,WUHU216HW,2013-04-30 12:56:00,
2013-04-30 09:01:00,57.2,54.9,30.16,SW,225,0.2,1.1,92,0.00,,,0.00,WUHU216HW,2013-04-30 13:01:00,
2013-04-30 09:06:00,57.2,54.6,30.16,SSE,158,1.1,1.1,91,0.00,,,0.00,WUHU216HW,2013-04-30 13:06:00,
2013-04-30 09:11:00,57.2,54.6,30.16,WSW,248,0.4,1.1,91,0.00,,,0.00,WUHU216HW,2013-04-30 13:11:00,
2013-04-30 09:16:00,57.4,54.8,30.16,WSW,248,0.4,1.1,91,0.00,,,0.00,WUHU216HW,2013-04-30 13:16:00,
2013-04-30 09:22:00,57.4,54.8,30.16,SW,225,1.1,1.1,91,0.00,,,0.00,WUHU216HW,2013-04-30 13:22:00,
2013-04-30 09:27:00,57.4,54.8,30.17,SSW,203,1.6,1.6,91,0.00,,,0.00,WUHU216HW,2013-04-30 13:27:00,
2013-04-30 09:32:00,57.4,54.8,30.17,SSE,158,1.3,1.6,91,0.00,,,0.00,WUHU216HW,2013-04-30 13:32:00,
2013-04-30 09:37:00,57.4,54.8,30.16,SW,225,1.1,1.8,91,0.00,,,0.00,WUHU216HW,2013-04-30 13:37:00,
2013-04-30 09:42:00,57.4,54.8,30.16,South,180,1.6,1.8,91,0.00,,,0.00,WUHU216HW,2013-04-30 13:42:00,
2013-04-30 09:47:00,57.4,54.8,30.17,SW,225,0.0,1.6,91,0.00,,,0.00,WUHU216HW,2013-04-30 13:47:00,
2013-04-30 09:52:00,57.4,54.8,30.17,SSW,203,1.1,1.6,91,0.00,,,0.00,WUHU216HW,2013-04-30 13:52:00,
2013-04-30 09:57:00,57.6,55.0,30.16,WNW,293,0.4,1.1,91,0.00,,,0.00,WUHU216HW,2013-04-30 13:57:00,
2013-04-30 10:02:00,57.8,55.2,30.17,SW,225,1.6,1.6,91,0.00,,,0.00,WUHU216HW,2013-04-30 14:02:00,
2013-04-30 10:07:00,57.6,55.0,30.17,SW,225,0.4,1.6,91,0.00,,,0.00,WUHU216HW,2013-04-30 14:07:00,
2013-04-30 10:13:00,58.0,55.4,30.17,WSW,248,1.1,1.6,91,0.00,,,0.00,WUHU216HW,2013-04-30 14:13:00,
2013-04-30 10:18:00,58.0,55.4,30.17,WSW,248,0.4,1.1,91,0.00,,,0.00,WUHU216HW,2013-04-30 14:18:00,
2013-04-30 10:23:00,58.0,55.4,30.16,SW,225,1.1,1.1,91,0.00,,,0.00,WUHU216HW,2013-04-30 14:23:00,
2013-04-30 10:28:00,58.0,55.4,30.17,SW,225,1.3,1.3,91,0.00,,,0.00,WUHU216HW,2013-04-30 14:28:00,
2013-04-30 10:33:00,58.0,55.1,30.17,SE,135,1.8,1.8,90,0.00,,,0.00,WUHU216HW,2013-04-30 14:33:00,
2013-04-30 10:38:00,58.0,55.1,30.17,WSW,248,2.5,2.5,90,0.00,,,0.00,WUHU216HW,2013-04-30 14:38:00,
2013-04-30 10:43:00,57.6,54.7,30.17,SSW,203,2.5,3.4,90,0.00,,,0.00,WUHU216HW,2013-04-30 14:43:00,
2013-04-30 10:48:00,57.4,54.5,30.17,SE,135,0.7,3.4,90,0.00,,,0.00,WUHU216HW,2013-04-30 14:48:00,
2013-04-30 10:53:00,57.4,54.5,30.17,WSW,248,1.3,2.5,90,0.00,,,0.00,WUHU216HW,2013-04-30 14:53:00,
2013-04-30 10:58:00,57.6,54.7,30.17,ESE,113,0.9,1.3,90,0.00,,,0.00,WUHU216HW,2013-04-30 14:58:00,
2013-04-30 11:03:00,57.6,54.7,30.17,SW,225,0.0,1.8,90,0.00,,,0.00,WUHU216HW,2013-04-30 15:03:00,
2013-04-30 11:08:00,57.6,54.7,30.17,SW,225,0.0,1.8,90,0.00,,,0.00,WUHU216HW,2013-04-30 15:08:00,
2013-04-30 11:14:00,57.6,54.7,30.17,South,180,0.9,0.9,90,0.00,,,0.00,WUHU216HW,2013-04-30 15:14:00,
2013-04-30 11:19:00,58.0,54.7,30.17,West,270,1.6,1.6,89,0.00,,,0.00,WUHU216HW,2013-04-30 15:19:00,
2013-04-30 11:24:00,58.0,54.7,30.18,SE,135,0.7,1.6,89,0.00,,,0.00,WUHU216HW,2013-04-30 15:24:00,
2013-04-30 11:29:00,58.0,54.7,30.17,WSW,248,1.6,1.6,89,0.00,,,0.00,WUHU216HW,2013-04-30 15:29:00,
2013-04-30 11:34:00,58.1,54.9,30.18,SSW,203,0.9,1.6,89,0.00,,,0.00,WUHU216HW,2013-04-30 15:34:00,
2013-04-30 11:39:00,58.5,55.6,30.18,SW,225,0.0,0.9,90,0.00,,,0.00,WUHU216HW,2013-04-30 15:39:00,
2013-04-30 11:44:00,58.7,55.8,30.18,SSE,158,0.0,0.9,90,0.00,,,0.00,WUHU216HW,2013-04-30 15:44:00,
2013-04-30 11:49:00,58.7,55.4,30.18,WSW,248,2.0,2.0,89,0.00,,,0.00,WUHU216HW,2013-04-30 15:49:00,
2013-04-30 11:54:00,59.0,55.8,30.18,SW,225,0.7,2.0,89,0.00,,,0.00,WUHU216HW,2013-04-30 15:54:00,
2013-04-30 11:59:00,59.0,55.8,30.18,SSE,158,1.8,1.8,89,0.00,,,0.00,WUHU216HW,2013-04-30 15:59:00,
2013-04-30 12:04:00,59.0,55.5,30.18,WSW,248,1.6,1.8,88,0.00,,,0.00,WUHU216HW,2013-04-30 16:04:00,
2013-04-30 12:09:00,59.0,55.5,30.18,WSW,248,0.4,1.8,88,0.00,,,0.00,WUHU216HW,2013-04-30 16:09:00,
2013-04-30 12:14:00,59.0,55.5,30.18,SW,225,0.4,0.9,88,0.00,,,0.00,WUHU216HW,2013-04-30 16:14:00,
2013-04-30 12:19:00,59.0,55.5,30.18,South,180,0.2,0.4,88,0.00,,,0.00,WUHU216HW,2013-04-30 16:19:00,
2013-04-30 12:25:00,58.9,55.4,30.18,WSW,248,1.6,1.8,88,0.00,,,0.00,WUHU216HW,2013-04-30 16:25:00,
2013-04-30 12:29:00,58.7,55.4,30.18,SW,225,0.9,1.8,89,0.00,,,0.00,WUHU216HW,2013-04-30 16:29:00,
2013-04-30 12:34:00,58.7,55.4,30.17,SSE,158,0.7,1.6,89,0.00,,,0.00,WUHU216HW,2013-04-30 16:34:00,
2013-04-30 12:40:00,58.7,55.4,30.18,SW,225,0.4,0.9,89,0.00,,,0.00,WUHU216HW,2013-04-30 16:40:00,
2013-04-30 12:45:00,58.7,55.4,30.17,ESE,113,0.0,0.7,89,0.00,,,0.00,WUHU216HW,2013-04-30 16:45:00,
2013-04-30 12:50:00,58.7,55.4,30.18,WSW,248,0.7,0.7,89,0.00,,,0.00,WUHU216HW,2013-04-30 16:50:00,
2013-04-30 12:55:00,58.7,55.8,30.17,West,270,0.9,0.9,90,0.01,,,0.01,WUHU216HW,2013-04-30 16:55:00,
2013-04-30 13:00:00,58.7,55.8,30.17,SSW,203,1.3,1.3,90,0.01,,,0.01,WUHU216HW,2013-04-30 17:00:00,
2013-04-30 13:05:00,58.9,56.0,30.17,WSW,248,1.3,1.3,90,0.01,,,0.01,WUHU216HW,2013-04-30 17:05:00,
2013-04-30 13:10:00,58.9,56.0,30.17,WSW,248,0.2,1.3,90,0.01,,,0.01,WUHU216HW,2013-04-30 17:10:00,
2013-04-30 13:15:00,59.2,56.3,30.17,SW,225,0.7,1.3,90,0.01,,,0.01,WUHU216HW,2013-04-30 17:15:00,
2013-04-30 13:20:00,59.2,56.0,30.17,West,270,0.4,0.7,89,0.01,,,0.01,WUHU216HW,2013-04-30 17:20:00,
2013-04-30 13:25:00,59.4,56.2,30.18,SSW,203,1.1,1.1,89,0.01,,,0.01,WUHU216HW,2013-04-30 17:25:00,
2013-04-30 13:30:00,59.4,56.2,30.18,SW,225,0.0,1.1,89,0.01,,,0.01,WUHU216HW,2013-04-30 17:30:00,
2013-04-30 13:35:00,59.4,56.2,30.17,SW,225,0.7,0.7,89,0.01,,,0.01,WUHU216HW,2013-04-30 17:35:00,
2013-04-30 13:40:00,59.4,56.2,30.17,WSW,248,0.9,0.9,89,0.01,,,0.01,WUHU216HW,2013-04-30 17:40:00,
2013-04-30 13:45:00,59.4,56.2,30.17,WSW,248,0.0,0.9,89,0.01,,,0.01,WUHU216HW,2013-04-30 17:45:00,
2013-04-30 13:50:00,59.6,56.3,30.17,WSW,248,0.9,0.9,89,0.00,,,0.01,WUHU216HW,2013-04-30 17:50:00,
2013-04-30 13:55:00,59.6,56.3,30.17,SSW,203,0.0,0.9,89,0.00,,,0.01,WUHU216HW,2013-04-30 17:55:00,
2013-04-30 14:01:00,59.8,56.5,30.17,South,180,1.1,1.1,89,0.00,,,0.01,WUHU216HW,2013-04-30 18:01:00,
2013-04-30 14:06:00,59.9,56.7,30.18,SW,225,2.2,2.2,89,0.00,,,0.01,WUHU216HW,2013-04-30 18:06:00,
2013-04-30 14:11:00,59.8,56.3,30.18,SSW,203,1.3,2.2,88,0.00,,,0.01,WUHU216HW,2013-04-30 18:11:00,
2013-04-30 14:16:00,59.8,56.3,30.18,West,270,1.6,2.2,88,0.00,,,0.01,WUHU216HW,2013-04-30 18:16:00,
2013-04-30 14:21:00,59.9,56.4,30.18,NNW,338,0.0,1.6,88,0.00,,,0.01,WUHU216HW,2013-04-30 18:21:00,
2013-04-30 14:26:00,60.1,56.6,30.18,SE,135,1.1,1.6,88,0.00,,,0.01,WUHU216HW,2013-04-30 18:26:00,
2013-04-30 14:31:00,60.5,56.6,30.18,SW,225,2.7,2.7,87,0.00,,,0.01,WUHU216HW,2013-04-30 18:31:00,
2013-04-30 14:36:00,60.7,56.8,30.18,South,180,2.0,2.7,87,0.00,,,0.01,WUHU216HW,2013-04-30 18:36:00,
2013-04-30 14:41:00,60.8,57.0,30.18,ESE,113,2.0,2.7,87,0.00,,,0.01,WUHU216HW,2013-04-30 18:41:00,
2013-04-30 14:46:00,60.8,57.0,30.18,South,180,3.8,3.8,87,0.00,,,0.01,WUHU216HW,2013-04-30 18:46:00,
2013-04-30 14:51:00,61.0,56.9,30.18,SSE,158,2.9,3.8,86,0.00,,,0.01,WUHU216HW,2013-04-30 18:51:00,
2013-04-30 14:57:00,60.8,56.7,30.18,SSW,203,1.8,2.9,86,0.00,,,0.01,WUHU216HW,2013-04-30 18:57:00,
2013-04-30 15:02:00,61.0,56.9,30.18,East,90,0.9,2.9,86,0.00,,,0.01,WUHU216HW,2013-04-30 19:02:00,
2013-04-30 15:07:00,61.4,57.2,30.18,SSE,158,0.0,1.8,86,0.00,,,0.01,WUHU216HW,2013-04-30 19:07:00,
2013-04-30 15:12:00,61.7,57.5,30.19,South,180,1.8,1.8,86,0.00,,,0.01,WUHU216HW,2013-04-30 19:12:00,
2013-04-30 15:17:00,61.7,57.5,30.19,South,180,1.8,1.8,86,0.00,,,0.01,WUHU216HW,2013-04-30 19:17:00,
2013-04-30 15:42:00,61.4,56.5,30.19,SSE,158,0.7,0.7,84,0.00,,,0.01,WUHU216HW,2013-04-30 19:42:00,
2013-04-30 15:47:00,61.2,56.3,30.19,West,270,1.1,1.1,84,0.00,,,0.01,WUHU216HW,2013-04-30 19:47:00,
2013-04-30 15:52:00,61.2,56.3,30.19,SSW,203,0.0,1.1,84,0.00,,,0.01,WUHU216HW,2013-04-30 19:52:00,
2013-04-30 15:57:00,60.8,56.3,30.20,WSW,248,1.1,1.1,85,0.00,,,0.01,WUHU216HW,2013-04-30 19:57:00,
2013-04-30 16:02:00,60.7,56.2,30.20,SW,225,2.5,2.5,85,0.00,,,0.01,WUHU216HW,2013-04-30 20:02:00,
2013-04-30 16:07:00,60.5,56.0,30.20,SSW,203,0.4,2.5,85,0.00,,,0.01,WUHU216HW,2013-04-30 20:07:00,
2013-04-30 16:12:00,60.3,55.8,30.20,SW,225,1.3,2.5,85,0.00,,,0.01,WUHU216HW,2013-04-30 20:12:00,
2013-04-30 16:17:00,60.1,55.6,30.20,South,180,0.7,1.3,85,0.00,,,0.01,WUHU216HW,2013-04-30 20:17:00,
2013-04-30 16:22:00,60.1,56.0,30.20,SW,225,1.6,1.6,86,0.00,,,0.01,WUHU216HW,2013-04-30 20:22:00,
2013-04-30 16:27:00,59.9,55.8,30.20,ENE,68,1.1,1.6,86,0.00,,,0.01,WUHU216HW,2013-04-30 20:27:00,
2013-04-30 16:32:00,59.9,55.8,30.20,ENE,68,0.2,1.6,86,0.00,,,0.01,WUHU216HW,2013-04-30 20:32:00,
2013-04-30 16:38:00,59.9,55.8,30.20,WSW,248,0.0,1.3,86,0.00,,,0.01,WUHU216HW,2013-04-30 20:38:00,
2013-04-30 16:43:00,59.8,55.6,30.21,SW,225,0.9,0.9,86,0.00,,,0.01,WUHU216HW,2013-04-30 20:43:00,
2013-04-30 16:48:00,59.4,55.3,30.21,SSW,203,0.2,0.9,86,0.00,,,0.01,WUHU216HW,2013-04-30 20:48:00,
2013-04-30 16:53:00,59.2,55.4,30.21,SSW,203,1.6,1.6,87,0.00,,,0.01,WUHU216HW,2013-04-30 20:53:00,
2013-04-30 16:58:00,59.0,55.2,30.21,SW,225,1.3,1.6,87,0.00,,,0.01,WUHU216HW,2013-04-30 20:58:00,
2013-04-30 17:03:00,58.7,54.8,30.21,SW,225,1.6,1.8,87,0.00,,,0.01,WUHU216HW,2013-04-30 21:03:00,
2013-04-30 17:08:00,58.7,54.8,30.21,SW,225,1.6,1.8,87,0.00,,,0.01,WUHU216HW,2013-04-30 21:08:00,
2013-04-30 17:33:00,58.3,55.1,30.21,SSW,203,0.0,0.0,89,0.00,,,0.01,WUHU216HW,2013-04-30 21:33:00,
2013-04-30 17:38:00,58.3,55.1,30.21,SW,225,1.1,1.1,89,0.00,,,0.01,WUHU216HW,2013-04-30 21:38:00,
2013-04-30 17:43:00,58.3,55.1,30.21,SSW,203,0.4,1.6,89,0.00,,,0.01,WUHU216HW,2013-04-30 21:43:00,
2013-04-30 17:48:00,58.1,54.6,30.20,SW,225,0.4,1.6,88,0.00,,,0.01,WUHU216HW,2013-04-30 21:48:00,
2013-04-30 17:53:00,58.1,54.6,30.21,SSE,158,1.1,1.1,88,0.00,,,0.01,WUHU216HW,2013-04-30 21:53:00,
2013-04-30 17:58:00,58.0,54.5,30.21,SW,225,0.9,2.9,88,0.00,,,0.01,WUHU216HW,2013-04-30 21:58:00,
2013-04-30 18:03:00,58.0,54.7,30.21,SSW,203,0.4,2.9,89,0.00,,,0.01,WUHU216HW,2013-04-30 22:03:00,
2013-04-30 18:09:00,58.0,54.7,30.22,SW,225,0.0,0.9,89,0.00,,,0.01,WUHU216HW,2013-04-30 22:09:00,
2013-04-30 18:14:00,58.0,54.7,30.22,SSW,203,1.1,1.1,89,0.00,,,0.01,WUHU216HW,2013-04-30 22:14:00,
2013-04-30 18:19:00,58.0,54.5,30.22,SW,225,1.1,1.1,88,0.00,,,0.01,WUHU216HW,2013-04-30 22:19:00,
2013-04-30 18:24:00,58.0,54.5,30.22,South,180,0.0,1.1,88,0.00,,,0.01,WUHU216HW,2013-04-30 22:24:00,
2013-04-30 18:29:00,58.0,54.5,30.22,SW,225,1.1,1.1,88,0.00,,,0.01,WUHU216HW,2013-04-30 22:29:00,
2013-04-30 18:34:00,58.0,54.5,30.22,SSW,203,0.0,1.8,88,0.00,,,0.01,WUHU216HW,2013-04-30 22:34:00,
2013-04-30 18:39:00,58.0,54.5,30.22,SW,225,0.4,1.8,88,0.00,,,0.01,WUHU216HW,2013-04-30 22:39:00,
2013-04-30 18:44:00,58.0,54.1,30.22,WSW,248,0.0,0.4,87,0.00,,,0.01,WUHU216HW,2013-04-30 22:44:00,
2013-04-30 18:49:00,57.8,53.9,30.22,SW,225,1.3,1.8,87,0.00,,,0.01,WUHU216HW,2013-04-30 22:49:00,
2013-04-30 18:54:00,57.8,53.9,30.22,SW,225,0.0,1.8,87,0.00,,,0.01,WUHU216HW,2013-04-30 22:54:00,
2013-04-30 19:00:00,57.8,53.9,30.22,SSE,158,0.4,1.3,87,0.00,,,0.01,WUHU216HW,2013-04-30 23:00:00,
2013-04-30 19:05:00,57.8,53.9,30.23,WSW,248,0.9,0.9,87,0.00,,,0.01,WUHU216HW,2013-04-30 23:05:00,
2013-04-30 19:10:00,57.8,53.9,30.23,South,180,0.0,0.9,87,0.00,,,0.01,WUHU216HW,2013-04-30 23:10:00,
2013-04-30 19:15:00,57.8,53.9,30.23,South,180,0.4,0.4,87,0.00,,,0.01,WUHU216HW,2013-04-30 23:15:00,
2013-04-30 19:20:00,57.8,53.9,30.23,NE,45,0.2,0.4,87,0.00,,,0.01,WUHU216HW,2013-04-30 23:20:00,
2013-04-30 19:25:00,57.8,53.7,30.23,SSW,203,0.2,0.7,86,0.00,,,0.01,WUHU216HW,2013-04-30 23:25:00,
2013-04-30 19:30:00,57.8,53.7,30.23,SW,225,0.4,0.7,86,0.00,,,0.01,WUHU216HW,2013-04-30 23:30:00,
2013-04-30 19:35:00,57.8,53.7,30.23,SW,225,0.0,0.4,86,0.00,,,0.01,WUHU216HW,2013-04-30 23:35:00,
2013-04-30 19:40:00,57.6,53.5,30.23,WSW,248,0.0,0.4,86,0.00,,,0.01,WUHU216HW,2013-04-30 23:40:00,
2013-04-30 19:45:00,57.6,53.5,30.23,WSW,248,0.0,0.0,86,0.00,,,0.01,WUHU216HW,2013-04-30 23:45:00,
2013-04-30 19:50:00,57.6,53.5,30.23,WSW,248,0.0,0.0,86,0.00,,,0.01,WUHU216HW,2013-04-30 23:50:00,
2013-04-30 19:56:00,57.6,53.5,30.23,WSW,248,0.0,0.0,86,0.00,,,0.01,WUHU216HW,2013-04-30 23:56:00,
2013-04-30 20:01:00,57.4,53.3,30.23,SSW,203,0.0,0.0,86,0.00,,,0.01,WUHU216HW,2013-05-01 00:01:00,
2013-04-30 20:06:00,57.4,53.3,30.23,WSW,248,0.9,0.9,86,0.00,,,0.01,WUHU216HW,2013-05-01 00:06:00,
2013-04-30 20:11:00,57.4,52.9,30.23,South,180,0.0,0.9,85,0.00,,,0.01,WUHU216HW,2013-05-01 00:11:00,
2013-04-30 20:16:00,57.2,52.7,30.23,WSW,248,0.4,0.9,85,0.00,,,0.01,WUHU216HW,2013-05-01 00:16:00,
2013-04-30 20:21:00,57.2,52.7,30.23,WSW,248,0.7,0.7,85,0.00,,,0.01,WUHU216HW,2013-05-01 00:21:00,
2013-04-30 20:26:00,57.2,52.7,30.23,WSW,248,0.0,0.7,85,0.00,,,0.01,WUHU216HW,2013-05-01 00:26:00,
2013-04-30 20:31:00,57.2,52.7,30.23,South,180,0.0,0.0,85,0.00,,,0.01,WUHU216HW,2013-05-01 00:31:00,
2013-04-30 20:36:00,57.2,52.4,30.23,SSW,203,0.7,0.7,84,0.00,,,0.01,WUHU216HW,2013-05-01 00:36:00,
2013-04-30 20:41:00,57.2,52.4,30.24,WSW,248,1.6,1.6,84,0.00,,,0.01,WUHU216HW,2013-05-01 00:41:00,
2013-04-30 20:46:00,57.2,52.1,30.24,SSE,158,0.2,1.6,83,0.00,,,0.01,WUHU216HW,2013-05-01 00:46:00,
2013-04-30 20:52:00,57.2,52.1,30.24,NNW,338,0.0,1.6,83,0.00,,,0.01,WUHU216HW,2013-05-01 00:52:00,
2013-04-30 20:57:00,57.2,52.1,30.24,South,180,1.6,1.6,83,0.00,,,0.01,WUHU216HW,2013-05-01 00:57:00,
2013-04-30 21:02:00,57.2,52.1,30.24,SSW,203,0.0,1.6,83,0.00,,,0.01,WUHU216HW,2013-05-01 01:02:00,
2013-04-30 21:07:00,57.2,51.5,30.24,SW,225,1.1,1.6,81,0.00,,,0.01,WUHU216HW,2013-05-01 01:07:00,
2013-04-30 21:12:00,57.2,51.5,30.24,SW,225,0.4,1.1,81,0.00,,,0.01,WUHU216HW,2013-05-01 01:12:00,
2013-04-30 21:17:00,57.2,51.1,30.25,WSW,248,0.2,1.1,80,0.00,,,0.01,WUHU216HW,2013-05-01 01:17:00,
2013-04-30 21:22:00,57.2,51.1,30.25,WSW,248,0.0,0.2,80,0.00,,,0.01,WUHU216HW,2013-05-01 01:22:00,
2013-04-30 21:27:00,57.2,51.1,30.25,WSW,248,0.0,0.2,80,0.00,,,0.01,WUHU216HW,2013-05-01 01:27:00,
2013-04-30 21:32:00,57.1,50.9,30.25,WSW,248,0.0,0.0,80,0.00,,,0.01,WUHU216HW,2013-05-01 01:32:00,
2013-04-30 21:37:00,57.1,50.9,30.25,SW,225,0.0,0.0,80,0.00,,,0.01,WUHU216HW,2013-05-01 01:37:00,
2013-04-30 21:43:00,56.9,50.8,30.25,WSW,248,0.0,0.0,80,0.00,,,0.01,WUHU216HW,2013-05-01 01:43:00,
2013-04-30 21:48:00,56.9,50.8,30.25,WSW,248,0.0,0.0,80,0.00,,,0.01,WUHU216HW,2013-05-01 01:48:00,
2013-04-30 21:53:00,56.9,51.1,30.25,WSW,248,0.0,0.0,81,0.00,,,0.01,WUHU216HW,2013-05-01 01:53:00,
2013-04-30 21:58:00,56.9,50.4,30.25,WSW,248,1.8,1.8,79,0.00,,,0.01,WUHU216HW,2013-05-01 01:58:00,
2013-04-30 22:03:00,56.9,50.4,30.25,WSW,248,0.0,1.8,79,0.00,,,0.01,WUHU216HW,2013-05-01 02:03:00,
2013-04-30 22:08:00,56.9,50.4,30.25,SSE,158,0.2,1.8,79,0.00,,,0.01,WUHU216HW,2013-05-01 02:08:00,
2013-04-30 22:13:00,56.9,50.0,30.25,South,180,1.3,1.3,78,0.00,,,0.01,WUHU216HW,2013-05-01 02:13:00,
2013-04-30 22:18:00,56.9,50.0,30.25,SSW,203,0.0,1.3,78,0.00,,,0.01,WUHU216HW,2013-05-01 02:18:00,
2013-04-30 22:23:00,56.9,50.0,30.25,SW,225,0.7,1.3,78,0.00,,,0.01,WUHU216HW,2013-05-01 02:23:00,
2013-04-30 22:29:00,56.9,49.0,30.25,SW,225,1.1,1.1,75,0.00,,,0.01,WUHU216HW,2013-05-01 02:29:00,
2013-04-30 22:34:00,56.9,49.0,30.25,SW,225,1.1,1.1,75,0.00,,,0.01,WUHU216HW,2013-05-01 02:34:00,
2013-04-30 22:54:00,57.2,49.7,30.26,SW,225,0.2,0.2,76,0.00,,,0.01,WUHU216HW,2013-05-01 02:54:00,
2013-04-30 22:59:00,57.2,49.7,30.25,South,180,0.0,0.2,76,0.00,,,0.01,WUHU216HW,2013-05-01 02:59:00,
2013-04-30 23:04:00,57.2,49.7,30.25,SSW,203,0.0,0.2,76,0.00,,,0.01,WUHU216HW,2013-05-01 03:04:00,
2013-04-30 23:09:00,57.2,49.7,30.26,SSW,203,0.0,1.6,76,0.00,,,0.01,WUHU216HW,2013-05-01 03:09:00,
2013-04-30 23:14:00,57.2,49.7,30.26,SSW,203,0.0,1.6,76,0.00,,,0.01,WUHU216HW,2013-05-01 03:14:00,
2013-04-30 23:20:00,57.2,49.7,30.26,SW,225,0.0,0.0,76,0.00,,,0.01,WUHU216HW,2013-05-01 03:20:00,
2013-04-30 23:25:00,57.1,49.5,30.26,WSW,248,0.0,0.0,76,0.00,,,0.01,WUHU216HW,2013-05-01 03:25:00,
2013-04-30 23:30:00,57.1,49.5,30.26,WSW,248,0.0,0.0,76,0.00,,,0.01,WUHU216HW,2013-05-01 03:30:00,
2013-04-30 23:35:00,57.1,49.5,30.26,WSW,248,1.1,1.1,76,0.00,,,0.01,WUHU216HW,2013-05-01 03:35:00,
2013-04-30 23:40:00,56.9,49.3,30.26,SW,225,0.0,1.1,76,0.00,,,0.01,WUHU216HW,2013-05-01 03:40:00,
2013-04-30 23:45:00,56.9,49.3,30.26,SW,225,0.2,0.2,76,0.00,,,0.01,WUHU216HW,2013-05-01 03:45:00,
2013-04-30 23:50:00,56.9,49.3,30.26,SW,225,0.7,0.7,76,0.00,,,0.01,WUHU216HW,2013-05-01 03:50:00,
2013-04-30 23:55:00,56.7,49.1,30.26,SW,225,0.7,0.7,76,0.00,,,0.01,WUHU216HW,2013-05-01 03:55:00,